sensor_id;sensor_type;location;lat;lon;timestamp;P1;durP1;ratioP1;P2;durP2;ratioP2
3597;SDS011;1813;52.016;8.714;2023-04-01T00:01:47;3.00;;;1.77;;
3597;SDS011;1813;52.016;8.714;2023-04-01T00:04:24;1.90;;;1.40;;
3597;SDS011;1813;52.016;8.714;2023-04-01T00:06:58;6.17;;;1.87;;
3597;SDS011;1813;52.016;8.714;2023-04-01T00:09:32;5.03;;;1.80;;
3597;SDS011;1813;52.016;8.714;2023-04-01T00:12:06;1.90;;;1.47;;
3597;SDS011;1813;52.016;8.714;2023-04-01T00:14:40;2.50;;;1.60;;
3597;SDS011;1813;52.016;8.714;2023-04-01T00:17:14;2.97;;;1.57;;
3597;SDS011;1813;52.016;8.714;2023-04-01T00:19:50;4.30;;;1.70;;
3597;SDS011;1813;52.016;8.714;2023-04-01T00:22:24;3.30;;;1.60;;
3597;SDS011;1813;52.016;8.714;2023-04-01T00:24:58;3.07;;;1.40;;
3597;SDS011;1813;52.016;8.714;2023-04-01T00:27:32;3.97;;;1.47;;
3597;SDS011;1813;52.016;8.714;2023-04-01T00:30:07;3.57;;;1.80;;
3597;SDS011;1813;52.016;8.714;2023-04-01T00:32:42;2.43;;;1.50;;
3597;SDS011;1813;52.016;8.714;2023-04-01T00:35:19;2.93;;;1.30;;
3597;SDS011;1813;52.016;8.714;2023-04-01T00:37:53;5.37;;;1.80;;
3597;SDS011;1813;52.016;8.714;2023-04-01T00:40:29;3.73;;;1.50;;
3597;SDS011;1813;52.016;8.714;2023-04-01T00:43:08;2.87;;;1.67;;
3597;SDS011;1813;52.016;8.714;2023-04-01T00:45:44;5.87;;;1.80;;
3597;SDS011;1813;52.016;8.714;2023-04-01T00:48:21;2.33;;;1.53;;
3597;SDS011;1813;52.016;8.714;2023-04-01T00:51:00;2.13;;;1.30;;
3597;SDS011;1813;52.016;8.714;2023-04-01T00:53:38;2.60;;;1.40;;
3597;SDS011;1813;52.016;8.714;2023-04-01T00:56:16;3.00;;;1.27;;
3597;SDS011;1813;52.016;8.714;2023-04-01T00:58:54;3.30;;;1.47;;
3597;SDS011;1813;52.016;8.714;2023-04-01T01:01:33;3.20;;;1.20;;
3597;SDS011;1813;52.016;8.714;2023-04-01T01:04:19;3.23;;;1.30;;
3597;SDS011;1813;52.016;8.714;2023-04-01T01:06:59;4.83;;;1.30;;
3597;SDS011;1813;52.016;8.714;2023-04-01T01:09:43;2.30;;;1.37;;
3597;SDS011;1813;52.016;8.714;2023-04-01T01:12:25;4.60;;;1.60;;
3597;SDS011;1813;52.016;8.714;2023-04-01T01:15:06;2.23;;;1.30;;
3597;SDS011;1813;52.016;8.714;2023-04-01T01:17:51;2.00;;;1.27;;
3597;SDS011;1813;52.016;8.714;2023-04-01T01:24:08;2.83;;;1.10;;
3597;SDS011;1813;52.016;8.714;2023-04-01T01:26:54;4.47;;;1.20;;
3597;SDS011;1813;52.016;8.714;2023-04-01T01:29:39;6.60;;;1.30;;
3597;SDS011;1813;52.016;8.714;2023-04-01T01:32:38;3.03;;;1.27;;
3597;SDS011;1813;52.016;8.714;2023-04-01T01:35:31;1.77;;;1.13;;
3597;SDS011;1813;52.016;8.714;2023-04-01T01:38:15;1.33;;;1.10;;
3597;SDS011;1813;52.016;8.714;2023-04-01T01:40:58;1.10;;;1.00;;
3597;SDS011;1813;52.016;8.714;2023-04-01T01:43:36;2.70;;;1.40;;
3597;SDS011;1813;52.016;8.714;2023-04-01T01:46:13;2.63;;;1.20;;
3597;SDS011;1813;52.016;8.714;2023-04-01T01:48:49;6.20;;;1.30;;
3597;SDS011;1813;52.016;8.714;2023-04-01T01:51:28;1.73;;;1.00;;
3597;SDS011;1813;52.016;8.714;2023-04-01T01:54:04;2.50;;;1.10;;
3597;SDS011;1813;52.016;8.714;2023-04-01T01:56:38;1.57;;;1.10;;
3597;SDS011;1813;52.016;8.714;2023-04-01T01:59:13;1.60;;;1.20;;
3597;SDS011;1813;52.016;8.714;2023-04-01T02:01:49;8.10;;;1.27;;
3597;SDS011;1813;52.016;8.714;2023-04-01T02:04:26;2.70;;;1.10;;
3597;SDS011;1813;52.016;8.714;2023-04-01T02:07:03;2.27;;;1.03;;
3597;SDS011;1813;52.016;8.714;2023-04-01T02:09:42;4.43;;;1.30;;
3597;SDS011;1813;52.016;8.714;2023-04-01T02:12:16;1.63;;;0.80;;
3597;SDS011;1813;52.016;8.714;2023-04-01T02:14:53;2.60;;;1.00;;
3597;SDS011;1813;52.016;8.714;2023-04-01T02:17:30;1.90;;;1.07;;
3597;SDS011;1813;52.016;8.714;2023-04-01T02:20:06;2.00;;;0.93;;
3597;SDS011;1813;52.016;8.714;2023-04-01T02:22:49;1.00;;;0.90;;
3597;SDS011;1813;52.016;8.714;2023-04-01T02:25:26;1.67;;;0.90;;
3597;SDS011;1813;52.016;8.714;2023-04-01T02:28:02;2.13;;;0.90;;
3597;SDS011;1813;52.016;8.714;2023-04-01T02:30:39;1.83;;;1.00;;
3597;SDS011;1813;52.016;8.714;2023-04-01T02:33:17;1.53;;;0.90;;
3597;SDS011;1813;52.016;8.714;2023-04-01T02:35:54;1.30;;;1.07;;
3597;SDS011;1813;52.016;8.714;2023-04-01T02:38:30;1.93;;;1.10;;
3597;SDS011;1813;52.016;8.714;2023-04-01T02:41:04;1.20;;;0.90;;
3597;SDS011;1813;52.016;8.714;2023-04-01T02:43:38;1.93;;;1.07;;
3597;SDS011;1813;52.016;8.714;2023-04-01T02:46:12;1.53;;;1.10;;
3597;SDS011;1813;52.016;8.714;2023-04-01T02:48:46;1.83;;;1.10;;
3597;SDS011;1813;52.016;8.714;2023-04-01T02:51:20;2.60;;;1.00;;
3597;SDS011;1813;52.016;8.714;2023-04-01T02:53:57;1.70;;;1.00;;
3597;SDS011;1813;52.016;8.714;2023-04-01T02:56:31;1.50;;;1.20;;
3597;SDS011;1813;52.016;8.714;2023-04-01T02:59:05;2.73;;;1.30;;
3597;SDS011;1813;52.016;8.714;2023-04-01T03:01:38;3.13;;;1.10;;
3597;SDS011;1813;52.016;8.714;2023-04-01T03:04:12;4.53;;;1.13;;
3597;SDS011;1813;52.016;8.714;2023-04-01T03:06:46;4.00;;;1.10;;
3597;SDS011;1813;52.016;8.714;2023-04-01T03:09:23;1.93;;;0.90;;
3597;SDS011;1813;52.016;8.714;2023-04-01T03:11:57;4.90;;;1.00;;
3597;SDS011;1813;52.016;8.714;2023-04-01T03:14:32;2.97;;;1.20;;
3597;SDS011;1813;52.016;8.714;2023-04-01T03:17:06;2.47;;;1.10;;
3597;SDS011;1813;52.016;8.714;2023-04-01T03:19:40;1.93;;;0.90;;
3597;SDS011;1813;52.016;8.714;2023-04-01T03:22:14;1.47;;;1.10;;
3597;SDS011;1813;52.016;8.714;2023-04-01T03:24:53;3.03;;;0.90;;
3597;SDS011;1813;52.016;8.714;2023-04-01T03:27:28;2.27;;;1.20;;
3597;SDS011;1813;52.016;8.714;2023-04-01T03:30:02;6.83;;;1.20;;
3597;SDS011;1813;52.016;8.714;2023-04-01T03:32:42;1.40;;;0.90;;
3597;SDS011;1813;52.016;8.714;2023-04-01T03:35:16;2.70;;;1.03;;
3597;SDS011;1813;52.016;8.714;2023-04-01T03:37:50;3.63;;;1.10;;
3597;SDS011;1813;52.016;8.714;2023-04-01T03:40:29;1.73;;;1.20;;
3597;SDS011;1813;52.016;8.714;2023-04-01T03:43:03;1.80;;;1.10;;
3597;SDS011;1813;52.016;8.714;2023-04-01T03:45:43;2.53;;;1.10;;
3597;SDS011;1813;52.016;8.714;2023-04-01T03:48:18;2.93;;;1.20;;
3597;SDS011;1813;52.016;8.714;2023-04-01T03:50:52;3.10;;;1.40;;
3597;SDS011;1813;52.016;8.714;2023-04-01T03:53:27;2.83;;;1.43;;
3597;SDS011;1813;52.016;8.714;2023-04-01T03:56:07;1.30;;;0.90;;
3597;SDS011;1813;52.016;8.714;2023-04-01T03:58:41;9.30;;;1.00;;
3597;SDS011;1813;52.016;8.714;2023-04-01T04:01:17;1.57;;;1.00;;
3597;SDS011;1813;52.016;8.714;2023-04-01T04:03:56;2.10;;;1.13;;
3597;SDS011;1813;52.016;8.714;2023-04-01T04:06:31;1.90;;;1.03;;
3597;SDS011;1813;52.016;8.714;2023-04-01T04:09:06;1.70;;;1.10;;
3597;SDS011;1813;52.016;8.714;2023-04-01T04:11:43;8.13;;;1.47;;
3597;SDS011;1813;52.016;8.714;2023-04-01T04:14:16;3.90;;;1.33;;
3597;SDS011;1813;52.016;8.714;2023-04-01T04:16:52;1.73;;;1.00;;
3597;SDS011;1813;52.016;8.714;2023-04-01T04:19:26;8.80;;;1.10;;
3597;SDS011;1813;52.016;8.714;2023-04-01T04:22:05;1.97;;;1.00;;
3597;SDS011;1813;52.016;8.714;2023-04-01T04:24:39;1.00;;;0.83;;
3597;SDS011;1813;52.016;8.714;2023-04-01T04:27:20;1.73;;;1.10;;
3597;SDS011;1813;52.016;8.714;2023-04-01T04:30:09;1.90;;;1.00;;
3597;SDS011;1813;52.016;8.714;2023-04-01T04:32:44;1.27;;;0.90;;
3597;SDS011;1813;52.016;8.714;2023-04-01T04:35:18;1.10;;;0.80;;
3597;SDS011;1813;52.016;8.714;2023-04-01T04:37:52;1.10;;;1.00;;
3597;SDS011;1813;52.016;8.714;2023-04-01T04:40:27;1.70;;;1.00;;
3597;SDS011;1813;52.016;8.714;2023-04-01T04:43:04;1.20;;;1.00;;
3597;SDS011;1813;52.016;8.714;2023-04-01T04:45:38;1.47;;;0.90;;
3597;SDS011;1813;52.016;8.714;2023-04-01T04:48:12;1.33;;;0.90;;
3597;SDS011;1813;52.016;8.714;2023-04-01T04:50:50;2.10;;;1.00;;
3597;SDS011;1813;52.016;8.714;2023-04-01T04:53:27;1.73;;;0.80;;
3597;SDS011;1813;52.016;8.714;2023-04-01T04:56:01;1.47;;;0.90;;
3597;SDS011;1813;52.016;8.714;2023-04-01T04:58:54;1.00;;;0.80;;
3597;SDS011;1813;52.016;8.714;2023-04-01T05:01:33;1.00;;;0.90;;
3597;SDS011;1813;52.016;8.714;2023-04-01T05:04:07;2.23;;;1.00;;
3597;SDS011;1813;52.016;8.714;2023-04-01T05:06:42;1.10;;;1.00;;
3597;SDS011;1813;52.016;8.714;2023-04-01T05:09:18;2.97;;;1.00;;
3597;SDS011;1813;52.016;8.714;2023-04-01T05:11:52;1.77;;;0.80;;
3597;SDS011;1813;52.016;8.714;2023-04-01T05:14:30;2.30;;;0.90;;
3597;SDS011;1813;52.016;8.714;2023-04-01T05:17:10;1.27;;;1.07;;
3597;SDS011;1813;52.016;8.714;2023-04-01T05:19:45;1.47;;;0.87;;
3597;SDS011;1813;52.016;8.714;2023-04-01T05:22:19;1.87;;;0.90;;
3597;SDS011;1813;52.016;8.714;2023-04-01T05:24:54;1.30;;;1.00;;
3597;SDS011;1813;52.016;8.714;2023-04-01T05:27:28;3.80;;;1.07;;
3597;SDS011;1813;52.016;8.714;2023-04-01T05:30:06;1.63;;;0.90;;
3597;SDS011;1813;52.016;8.714;2023-04-01T05:32:48;3.37;;;1.10;;
3597;SDS011;1813;52.016;8.714;2023-04-01T05:35:22;1.30;;;0.90;;
3597;SDS011;1813;52.016;8.714;2023-04-01T05:37:57;0.80;;;0.80;;
3597;SDS011;1813;52.016;8.714;2023-04-01T05:40:31;2.93;;;1.13;;
3597;SDS011;1813;52.016;8.714;2023-04-01T05:43:06;1.30;;;1.03;;
3597;SDS011;1813;52.016;8.714;2023-04-01T05:45:42;1.00;;;0.90;;
3597;SDS011;1813;52.016;8.714;2023-04-01T05:48:16;2.30;;;0.90;;
3597;SDS011;1813;52.016;8.714;2023-04-01T05:50:50;2.30;;;1.00;;
3597;SDS011;1813;52.016;8.714;2023-04-01T05:53:24;0.90;;;0.90;;
3597;SDS011;1813;52.016;8.714;2023-04-01T05:56:01;1.03;;;0.90;;
3597;SDS011;1813;52.016;8.714;2023-04-01T05:58:41;1.13;;;0.97;;
3597;SDS011;1813;52.016;8.714;2023-04-01T06:01:17;3.00;;;0.90;;
3597;SDS011;1813;52.016;8.714;2023-04-01T06:03:52;0.83;;;0.83;;
3597;SDS011;1813;52.016;8.714;2023-04-01T06:06:26;1.63;;;0.87;;
3597;SDS011;1813;52.016;8.714;2023-04-01T06:09:12;1.33;;;0.90;;
3597;SDS011;1813;52.016;8.714;2023-04-01T06:12:03;1.67;;;0.90;;
3597;SDS011;1813;52.016;8.714;2023-04-01T06:15:10;1.20;;;0.90;;
3597;SDS011;1813;52.016;8.714;2023-04-01T06:18:07;1.20;;;0.80;;
3597;SDS011;1813;52.016;8.714;2023-04-01T06:20:57;1.97;;;1.00;;
3597;SDS011;1813;52.016;8.714;2023-04-01T06:23:41;1.57;;;0.90;;
3597;SDS011;1813;52.016;8.714;2023-04-01T06:26:30;5.33;;;1.00;;
3597;SDS011;1813;52.016;8.714;2023-04-01T06:29:18;3.50;;;1.00;;
3597;SDS011;1813;52.016;8.714;2023-04-01T06:32:17;1.67;;;0.90;;
3597;SDS011;1813;52.016;8.714;2023-04-01T06:35:11;0.90;;;0.80;;
3597;SDS011;1813;52.016;8.714;2023-04-01T06:38:19;1.00;;;0.90;;
3597;SDS011;1813;52.016;8.714;2023-04-01T06:41:23;3.90;;;1.30;;
3597;SDS011;1813;52.016;8.714;2023-04-01T06:44:16;1.30;;;1.00;;
3597;SDS011;1813;52.016;8.714;2023-04-01T06:47:22;1.37;;;0.90;;
3597;SDS011;1813;52.016;8.714;2023-04-01T06:50:36;1.63;;;0.83;;
3597;SDS011;1813;52.016;8.714;2023-04-01T06:53:37;1.10;;;1.03;;
3597;SDS011;1813;52.016;8.714;2023-04-01T06:56:40;2.50;;;1.00;;
3597;SDS011;1813;52.016;8.714;2023-04-01T06:59:28;1.83;;;1.00;;
3597;SDS011;1813;52.016;8.714;2023-04-01T07:02:12;1.10;;;1.00;;
3597;SDS011;1813;52.016;8.714;2023-04-01T07:04:55;2.00;;;1.07;;
3597;SDS011;1813;52.016;8.714;2023-04-01T07:07:36;1.30;;;1.20;;
3597;SDS011;1813;52.016;8.714;2023-04-01T07:10:17;1.27;;;1.17;;
3597;SDS011;1813;52.016;8.714;2023-04-01T07:13:16;3.83;;;1.37;;
3597;SDS011;1813;52.016;8.714;2023-04-01T07:16:03;1.87;;;1.37;;
3597;SDS011;1813;52.016;8.714;2023-04-01T07:18:45;1.20;;;1.03;;
3597;SDS011;1813;52.016;8.714;2023-04-01T07:21:29;1.07;;;0.97;;
3597;SDS011;1813;52.016;8.714;2023-04-01T07:24:20;1.20;;;0.90;;
3597;SDS011;1813;52.016;8.714;2023-04-01T07:27:11;1.10;;;1.00;;
3597;SDS011;1813;52.016;8.714;2023-04-01T07:29:48;2.00;;;1.00;;
3597;SDS011;1813;52.016;8.714;2023-04-01T07:32:25;1.33;;;1.10;;
3597;SDS011;1813;52.016;8.714;2023-04-01T07:35:09;2.20;;;1.30;;
3597;SDS011;1813;52.016;8.714;2023-04-01T07:37:54;1.23;;;1.00;;
3597;SDS011;1813;52.016;8.714;2023-04-01T07:40:47;2.13;;;1.20;;
3597;SDS011;1813;52.016;8.714;2023-04-01T07:43:32;2.20;;;1.03;;
3597;SDS011;1813;52.016;8.714;2023-04-01T07:46:37;2.50;;;1.40;;
3597;SDS011;1813;52.016;8.714;2023-04-01T07:49:25;2.93;;;1.40;;
3597;SDS011;1813;52.016;8.714;2023-04-01T07:52:06;1.50;;;1.30;;
3597;SDS011;1813;52.016;8.714;2023-04-01T07:54:49;2.60;;;1.60;;
3597;SDS011;1813;52.016;8.714;2023-04-01T07:57:30;1.60;;;1.50;;
3597;SDS011;1813;52.016;8.714;2023-04-01T08:00:11;1.70;;;1.60;;
3597;SDS011;1813;52.016;8.714;2023-04-01T08:03:16;2.50;;;1.47;;
3597;SDS011;1813;52.016;8.714;2023-04-01T08:06:05;3.43;;;1.47;;
3597;SDS011;1813;52.016;8.714;2023-04-01T08:08:51;1.50;;;1.40;;
3597;SDS011;1813;52.016;8.714;2023-04-01T08:12:08;1.60;;;1.50;;
3597;SDS011;1813;52.016;8.714;2023-04-01T08:15:11;2.00;;;1.90;;
3597;SDS011;1813;52.016;8.714;2023-04-01T08:18:04;2.63;;;1.73;;
3597;SDS011;1813;52.016;8.714;2023-04-01T08:20:45;3.30;;;1.83;;
3597;SDS011;1813;52.016;8.714;2023-04-01T08:23:24;2.23;;;1.80;;
3597;SDS011;1813;52.016;8.714;2023-04-01T08:26:01;3.30;;;1.70;;
3597;SDS011;1813;52.016;8.714;2023-04-01T08:28:45;1.83;;;1.63;;
3597;SDS011;1813;52.016;8.714;2023-04-01T08:31:32;2.00;;;1.50;;
3597;SDS011;1813;52.016;8.714;2023-04-01T08:34:13;2.93;;;1.70;;
3597;SDS011;1813;52.016;8.714;2023-04-01T08:36:53;1.60;;;1.50;;
3597;SDS011;1813;52.016;8.714;2023-04-01T08:39:34;1.63;;;1.53;;
3597;SDS011;1813;52.016;8.714;2023-04-01T08:45:21;1.60;;;1.50;;
3597;SDS011;1813;52.016;8.714;2023-04-01T08:48:25;1.67;;;1.50;;
3597;SDS011;1813;52.016;8.714;2023-04-01T08:51:18;1.73;;;1.60;;
3597;SDS011;1813;52.016;8.714;2023-04-01T08:54:26;5.53;;;1.60;;
3597;SDS011;1813;52.016;8.714;2023-04-01T08:57:20;2.77;;;1.60;;
3597;SDS011;1813;52.016;8.714;2023-04-01T09:00:30;1.60;;;1.50;;
3597;SDS011;1813;52.016;8.714;2023-04-01T09:03:26;1.63;;;1.53;;
3597;SDS011;1813;52.016;8.714;2023-04-01T09:09:21;2.00;;;1.70;;
3597;SDS011;1813;52.016;8.714;2023-04-01T09:12:21;1.50;;;1.40;;
3597;SDS011;1813;52.016;8.714;2023-04-01T09:15:13;2.90;;;1.23;;
3597;SDS011;1813;52.016;8.714;2023-04-01T09:18:04;2.17;;;1.40;;
3597;SDS011;1813;52.016;8.714;2023-04-01T09:27:05;1.47;;;1.37;;
3597;SDS011;1813;52.016;8.714;2023-04-01T09:29:54;1.40;;;1.27;;
3597;SDS011;1813;52.016;8.714;2023-04-01T09:33:07;1.50;;;1.40;;
3597;SDS011;1813;52.016;8.714;2023-04-01T09:35:55;2.30;;;1.40;;
3597;SDS011;1813;52.016;8.714;2023-04-01T09:38:42;1.40;;;1.30;;
3597;SDS011;1813;52.016;8.714;2023-04-01T09:41:29;1.47;;;1.37;;
3597;SDS011;1813;52.016;8.714;2023-04-01T09:44:15;1.60;;;1.50;;
3597;SDS011;1813;52.016;8.714;2023-04-01T09:47:16;1.30;;;1.20;;
3597;SDS011;1813;52.016;8.714;2023-04-01T09:50:23;1.30;;;1.20;;
3597;SDS011;1813;52.016;8.714;2023-04-01T09:53:11;2.13;;;1.20;;
3597;SDS011;1813;52.016;8.714;2023-04-01T09:56:05;1.50;;;1.40;;
3597;SDS011;1813;52.016;8.714;2023-04-01T10:02:32;1.50;;;1.40;;
3597;SDS011;1813;52.016;8.714;2023-04-01T10:18:17;1.60;;;1.50;;
3597;SDS011;1813;52.016;8.714;2023-04-01T10:24:27;1.50;;;1.40;;
3597;SDS011;1813;52.016;8.714;2023-04-01T10:27:29;2.53;;;1.60;;
3597;SDS011;1813;52.016;8.714;2023-04-01T10:30:46;1.33;;;1.23;;
3597;SDS011;1813;52.016;8.714;2023-04-01T10:33:56;1.30;;;1.20;;
3597;SDS011;1813;52.016;8.714;2023-04-01T10:36:53;1.30;;;1.20;;
3597;SDS011;1813;52.016;8.714;2023-04-01T10:39:49;2.60;;;1.30;;
3597;SDS011;1813;52.016;8.714;2023-04-01T10:43:16;1.70;;;1.60;;
3597;SDS011;1813;52.016;8.714;2023-04-01T10:49:49;1.57;;;1.33;;
3597;SDS011;1813;52.016;8.714;2023-04-01T10:56:36;1.20;;;1.10;;
3597;SDS011;1813;52.016;8.714;2023-04-01T11:12:43;1.40;;;1.10;;
3597;SDS011;1813;52.016;8.714;2023-04-01T11:21:59;1.33;;;1.10;;
3597;SDS011;1813;52.016;8.714;2023-04-01T11:25:08;1.30;;;0.90;;
3597;SDS011;1813;52.016;8.714;2023-04-01T11:31:34;1.13;;;1.03;;
3597;SDS011;1813;52.016;8.714;2023-04-01T11:34:16;1.30;;;1.10;;
3597;SDS011;1813;52.016;8.714;2023-04-01T11:37:06;1.23;;;1.13;;
3597;SDS011;1813;52.016;8.714;2023-04-01T11:40:17;1.30;;;1.20;;
3597;SDS011;1813;52.016;8.714;2023-04-01T11:43:16;1.20;;;1.10;;
3597;SDS011;1813;52.016;8.714;2023-04-01T11:46:23;1.30;;;0.90;;
3597;SDS011;1813;52.016;8.714;2023-04-01T11:49:07;0.90;;;0.90;;
3597;SDS011;1813;52.016;8.714;2023-04-01T11:52:08;1.10;;;0.90;;
3597;SDS011;1813;52.016;8.714;2023-04-01T11:55:03;1.00;;;1.00;;
3597;SDS011;1813;52.016;8.714;2023-04-01T11:57:55;1.20;;;1.00;;
3597;SDS011;1813;52.016;8.714;2023-04-01T12:00:48;1.30;;;1.20;;
3597;SDS011;1813;52.016;8.714;2023-04-01T12:03:37;1.20;;;1.10;;
3597;SDS011;1813;52.016;8.714;2023-04-01T12:06:21;0.90;;;0.90;;
3597;SDS011;1813;52.016;8.714;2023-04-01T12:09:04;0.90;;;0.90;;
3597;SDS011;1813;52.016;8.714;2023-04-01T12:11:50;1.20;;;0.90;;
3597;SDS011;1813;52.016;8.714;2023-04-01T12:14:36;1.33;;;1.07;;
3597;SDS011;1813;52.016;8.714;2023-04-01T12:17:21;3.53;;;1.07;;
3597;SDS011;1813;52.016;8.714;2023-04-01T12:20:13;1.00;;;1.00;;
3597;SDS011;1813;52.016;8.714;2023-04-01T12:23:02;1.20;;;1.10;;
3597;SDS011;1813;52.016;8.714;2023-04-01T12:25:57;1.37;;;1.00;;
3597;SDS011;1813;52.016;8.714;2023-04-01T12:28:41;1.57;;;1.10;;
3597;SDS011;1813;52.016;8.714;2023-04-01T12:31:35;1.00;;;1.00;;
3597;SDS011;1813;52.016;8.714;2023-04-01T12:37:17;1.30;;;1.20;;
3597;SDS011;1813;52.016;8.714;2023-04-01T12:43:09;1.30;;;1.20;;
3597;SDS011;1813;52.016;8.714;2023-04-01T12:46:05;1.40;;;1.30;;
3597;SDS011;1813;52.016;8.714;2023-04-01T12:48:59;1.03;;;1.03;;
3597;SDS011;1813;52.016;8.714;2023-04-01T13:07:04;1.50;;;0.90;;
3597;SDS011;1813;52.016;8.714;2023-04-01T13:09:50;1.20;;;1.10;;
3597;SDS011;1813;52.016;8.714;2023-04-01T13:15:31;1.07;;;0.90;;
3597;SDS011;1813;52.016;8.714;2023-04-01T13:18:14;1.90;;;1.10;;
3597;SDS011;1813;52.016;8.714;2023-04-01T13:21:02;2.70;;;1.00;;
3597;SDS011;1813;52.016;8.714;2023-04-01T13:23:54;1.07;;;1.07;;
3597;SDS011;1813;52.016;8.714;2023-04-01T13:26:37;1.30;;;1.20;;
3597;SDS011;1813;52.016;8.714;2023-04-01T13:29:26;1.00;;;0.90;;
3597;SDS011;1813;52.016;8.714;2023-04-01T13:32:14;1.10;;;1.10;;
3597;SDS011;1813;52.016;8.714;2023-04-01T13:35:00;1.17;;;1.17;;
3597;SDS011;1813;52.016;8.714;2023-04-01T13:37:52;2.33;;;1.23;;
3597;SDS011;1813;52.016;8.714;2023-04-01T13:40:36;1.30;;;1.20;;
3597;SDS011;1813;52.016;8.714;2023-04-01T13:43:18;1.30;;;1.20;;
3597;SDS011;1813;52.016;8.714;2023-04-01T13:46:08;1.10;;;1.00;;
3597;SDS011;1813;52.016;8.714;2023-04-01T13:52:12;1.17;;;1.17;;
3597;SDS011;1813;52.016;8.714;2023-04-01T13:55:08;5.13;;;1.50;;
3597;SDS011;1813;52.016;8.714;2023-04-01T13:58:04;1.20;;;1.20;;
3597;SDS011;1813;52.016;8.714;2023-04-01T14:00:58;1.70;;;1.60;;
3597;SDS011;1813;52.016;8.714;2023-04-01T14:06:40;1.67;;;1.57;;
3597;SDS011;1813;52.016;8.714;2023-04-01T14:09:35;2.00;;;1.90;;
3597;SDS011;1813;52.016;8.714;2023-04-01T14:12:33;2.20;;;2.10;;
3597;SDS011;1813;52.016;8.714;2023-04-01T14:15:19;2.00;;;1.90;;
3597;SDS011;1813;52.016;8.714;2023-04-01T14:18:07;1.80;;;1.70;;
3597;SDS011;1813;52.016;8.714;2023-04-01T14:20:58;1.80;;;1.70;;
3597;SDS011;1813;52.016;8.714;2023-04-01T14:29:47;1.93;;;1.83;;
3597;SDS011;1813;52.016;8.714;2023-04-01T14:32:33;1.90;;;1.70;;
3597;SDS011;1813;52.016;8.714;2023-04-01T14:35:19;2.30;;;2.20;;
3597;SDS011;1813;52.016;8.714;2023-04-01T14:38:10;2.57;;;2.33;;
3597;SDS011;1813;52.016;8.714;2023-04-01T14:41:06;2.90;;;2.70;;
3597;SDS011;1813;52.016;8.714;2023-04-01T14:44:01;3.40;;;3.10;;
3597;SDS011;1813;52.016;8.714;2023-04-01T14:47:06;3.07;;;2.87;;
3597;SDS011;1813;52.016;8.714;2023-04-01T14:50:02;2.40;;;2.20;;
3597;SDS011;1813;52.016;8.714;2023-04-01T14:52:40;4.90;;;2.10;;
3597;SDS011;1813;52.016;8.714;2023-04-01T14:55:21;2.00;;;1.90;;
3597;SDS011;1813;52.016;8.714;2023-04-01T14:58:07;2.03;;;1.93;;
3597;SDS011;1813;52.016;8.714;2023-04-01T15:00:48;2.20;;;2.10;;
3597;SDS011;1813;52.016;8.714;2023-04-01T15:03:32;2.13;;;2.03;;
3597;SDS011;1813;52.016;8.714;2023-04-01T15:06:26;2.13;;;1.90;;
3597;SDS011;1813;52.016;8.714;2023-04-01T15:09:13;1.80;;;1.70;;
3597;SDS011;1813;52.016;8.714;2023-04-01T15:11:58;2.83;;;2.00;;
3597;SDS011;1813;52.016;8.714;2023-04-01T15:14:51;1.87;;;1.77;;
3597;SDS011;1813;52.016;8.714;2023-04-01T15:17:55;3.50;;;1.70;;
3597;SDS011;1813;52.016;8.714;2023-04-01T15:23:50;2.00;;;1.90;;
3597;SDS011;1813;52.016;8.714;2023-04-01T15:26:42;2.17;;;1.97;;
3597;SDS011;1813;52.016;8.714;2023-04-01T15:29:44;2.10;;;2.00;;
3597;SDS011;1813;52.016;8.714;2023-04-01T15:32:37;2.63;;;2.27;;
3597;SDS011;1813;52.016;8.714;2023-04-01T15:35:19;5.53;;;2.10;;
3597;SDS011;1813;52.016;8.714;2023-04-01T15:38:05;2.63;;;1.87;;
3597;SDS011;1813;52.016;8.714;2023-04-01T15:40:45;1.67;;;1.57;;
3597;SDS011;1813;52.016;8.714;2023-04-01T15:43:26;1.80;;;1.70;;
3597;SDS011;1813;52.016;8.714;2023-04-01T15:46:14;3.37;;;1.80;;
3597;SDS011;1813;52.016;8.714;2023-04-01T15:49:05;1.80;;;1.70;;
3597;SDS011;1813;52.016;8.714;2023-04-01T15:51:58;1.90;;;1.53;;
3597;SDS011;1813;52.016;8.714;2023-04-01T15:54:53;1.87;;;1.77;;
3597;SDS011;1813;52.016;8.714;2023-04-01T15:57:46;2.70;;;1.80;;
3597;SDS011;1813;52.016;8.714;2023-04-01T16:00:30;3.67;;;3.27;;
3597;SDS011;1813;52.016;8.714;2023-04-01T16:03:15;2.30;;;2.13;;
3597;SDS011;1813;52.016;8.714;2023-04-01T16:06:00;2.80;;;2.60;;
3597;SDS011;1813;52.016;8.714;2023-04-01T16:08:48;2.17;;;2.07;;
3597;SDS011;1813;52.016;8.714;2023-04-01T16:11:36;2.10;;;2.00;;
3597;SDS011;1813;52.016;8.714;2023-04-01T16:14:19;1.87;;;1.77;;
3597;SDS011;1813;52.016;8.714;2023-04-01T16:17:11;4.27;;;1.97;;
3597;SDS011;1813;52.016;8.714;2023-04-01T16:20:00;2.60;;;2.40;;
3597;SDS011;1813;52.016;8.714;2023-04-01T16:22:49;3.90;;;2.57;;
3597;SDS011;1813;52.016;8.714;2023-04-01T16:25:32;2.33;;;2.20;;
3597;SDS011;1813;52.016;8.714;2023-04-01T16:28:18;1.90;;;1.80;;
3597;SDS011;1813;52.016;8.714;2023-04-01T16:30:57;3.17;;;1.97;;
3597;SDS011;1813;52.016;8.714;2023-04-01T16:33:35;2.07;;;1.90;;
3597;SDS011;1813;52.016;8.714;2023-04-01T16:36:21;2.30;;;2.10;;
3597;SDS011;1813;52.016;8.714;2023-04-01T16:39:09;2.60;;;2.40;;
3597;SDS011;1813;52.016;8.714;2023-04-01T16:41:59;3.63;;;2.67;;
3597;SDS011;1813;52.016;8.714;2023-04-01T16:44:52;2.40;;;2.30;;
3597;SDS011;1813;52.016;8.714;2023-04-01T16:47:29;2.70;;;2.50;;
3597;SDS011;1813;52.016;8.714;2023-04-01T16:50:06;3.83;;;3.40;;
3597;SDS011;1813;52.016;8.714;2023-04-01T16:55:43;6.73;;;3.70;;
3597;SDS011;1813;52.016;8.714;2023-04-01T16:58:24;3.40;;;3.10;;
3597;SDS011;1813;52.016;8.714;2023-04-01T17:01:05;7.50;;;2.87;;
3597;SDS011;1813;52.016;8.714;2023-04-01T17:03:42;3.90;;;2.30;;
3597;SDS011;1813;52.016;8.714;2023-04-01T17:06:24;2.67;;;2.40;;
3597;SDS011;1813;52.016;8.714;2023-04-01T17:09:07;3.03;;;2.20;;
3597;SDS011;1813;52.016;8.714;2023-04-01T17:11:59;2.40;;;2.20;;
3597;SDS011;1813;52.016;8.714;2023-04-01T17:14:40;1.93;;;1.83;;
3597;SDS011;1813;52.016;8.714;2023-04-01T17:17:28;2.33;;;1.70;;
3597;SDS011;1813;52.016;8.714;2023-04-01T17:23:16;2.00;;;1.83;;
3597;SDS011;1813;52.016;8.714;2023-04-01T17:26:01;2.00;;;1.80;;
3597;SDS011;1813;52.016;8.714;2023-04-01T17:28:45;2.00;;;1.90;;
3597;SDS011;1813;52.016;8.714;2023-04-01T17:31:28;2.30;;;2.10;;
3597;SDS011;1813;52.016;8.714;2023-04-01T17:34:25;2.77;;;2.53;;
3597;SDS011;1813;52.016;8.714;2023-04-01T17:37:14;1.30;;;1.20;;
3597;SDS011;1813;52.016;8.714;2023-04-01T17:40:01;1.30;;;1.10;;
3597;SDS011;1813;52.016;8.714;2023-04-01T17:42:50;1.10;;;1.10;;
3597;SDS011;1813;52.016;8.714;2023-04-01T17:45:30;2.80;;;1.40;;
3597;SDS011;1813;52.016;8.714;2023-04-01T17:51:19;2.20;;;1.70;;
3597;SDS011;1813;52.016;8.714;2023-04-01T17:54:06;2.20;;;2.10;;
3597;SDS011;1813;52.016;8.714;2023-04-01T17:56:59;2.10;;;2.00;;
3597;SDS011;1813;52.016;8.714;2023-04-01T17:59:44;2.10;;;2.00;;
3597;SDS011;1813;52.016;8.714;2023-04-01T18:02:30;2.50;;;2.33;;
3597;SDS011;1813;52.016;8.714;2023-04-01T18:05:22;2.60;;;2.03;;
3597;SDS011;1813;52.016;8.714;2023-04-01T18:08:09;2.00;;;1.90;;
3597;SDS011;1813;52.016;8.714;2023-04-01T18:10:50;2.17;;;2.07;;
3597;SDS011;1813;52.016;8.714;2023-04-01T18:13:37;2.27;;;2.13;;
3597;SDS011;1813;52.016;8.714;2023-04-01T18:16:37;2.47;;;2.27;;
3597;SDS011;1813;52.016;8.714;2023-04-01T18:19:22;2.80;;;2.20;;
3597;SDS011;1813;52.016;8.714;2023-04-01T18:22:09;2.43;;;2.23;;
3597;SDS011;1813;52.016;8.714;2023-04-01T18:24:54;2.17;;;2.07;;
3597;SDS011;1813;52.016;8.714;2023-04-01T18:27:36;1.90;;;1.80;;
3597;SDS011;1813;52.016;8.714;2023-04-01T18:30:14;2.00;;;1.80;;
3597;SDS011;1813;52.016;8.714;2023-04-01T18:32:53;1.90;;;1.80;;
3597;SDS011;1813;52.016;8.714;2023-04-01T18:35:34;3.73;;;2.17;;
3597;SDS011;1813;52.016;8.714;2023-04-01T18:38:25;2.30;;;2.03;;
3597;SDS011;1813;52.016;8.714;2023-04-01T18:41:15;2.80;;;2.00;;
3597;SDS011;1813;52.016;8.714;2023-04-01T18:43:59;2.00;;;1.80;;
3597;SDS011;1813;52.016;8.714;2023-04-01T18:46:52;1.83;;;1.73;;
3597;SDS011;1813;52.016;8.714;2023-04-01T18:49:34;1.93;;;1.83;;
3597;SDS011;1813;52.016;8.714;2023-04-01T18:55:22;1.73;;;1.63;;
3597;SDS011;1813;52.016;8.714;2023-04-01T18:58:12;1.57;;;1.47;;
3597;SDS011;1813;52.016;8.714;2023-04-01T19:01:02;1.50;;;1.40;;
3597;SDS011;1813;52.016;8.714;2023-04-01T19:03:48;1.30;;;1.20;;